Time;durP1;ratioP1;P1;durP2;ratioP2;P2;SDS_P1;SDS_P2;PMS_P1;PMS_P2;Temp;Humidity;BMP_temperature;BMP_pressure;BME280_temperature;BME280_humidity;BME280_pressure;Samples;Min_cycle;Max_cycle;Signal;HPM_P1;HPM_P2
2022/06/13 00:00:37;;;;;;;1.83;1.20;;;23.00;59.40;;;;;;5078466;28;21057;-49
2022/06/13 00:03:17;;;;;;;1.87;1.30;;;23.00;59.40;;;;;;5073983;28;20879;-48
2022/06/13 00:05:57;;;;;;;1.60;1.50;;;23.00;59.10;;;;;;5126395;27;20591;-49
2022/06/13 00:08:37;;;;;;;1.47;1.23;;;23.00;59.30;;;;;;5070608;28;20849;-48
2022/06/13 00:11:19;;;;;;;1.67;1.10;;;23.00;59.30;;;;;;5087802;27;20528;-48
2022/06/13 00:13:59;;;;;;;2.40;1.20;;;23.00;59.30;;;;;;5108143;27;20553;-49
2022/06/13 00:16:41;;;;;;;1.57;1.00;;;23.00;59.30;;;;;;5119715;27;20532;-48
2022/06/13 00:19:22;;;;;;;1.43;1.00;;;23.00;59.20;;;;;;5052675;27;20608;-48
2022/06/13 00:22:02;;;;;;;1.40;1.30;;;23.00;59.40;;;;;;5127092;27;20525;-49
2022/06/13 00:24:42;;;;;;;1.50;0.90;;;23.00;59.20;;;;;;5048140;28;20558;-48
2022/06/13 00:27:22;;;;;;;1.37;1.10;;;23.00;59.20;;;;;;5074897;28;20587;-50
2022/06/13 00:30:05;;;;;;;2.97;1.30;;;23.00;59.30;;;;;;5069897;27;20555;-51
2022/06/13 00:32:46;;;;;;;1.10;1.00;;;23.00;59.30;;;;;;5078848;28;20527;-50
2022/06/13 00:35:26;;;;;;;1.83;0.87;;;23.00;59.40;;;;;;5078971;28;21036;-48
2022/06/13 00:38:06;;;;;;;2.80;1.10;;;23.00;59.30;;;;;;5104369;27;20536;-50
2022/06/13 00:40:48;;;;;;;1.70;1.03;;;22.90;59.20;;;;;;5070969;27;20684;-49
2022/06/13 00:43:29;;;;;;;3.33;1.10;;;23.00;59.20;;;;;;5062314;28;21063;-50
2022/06/13 00:46:22;;;;;;;1.03;0.90;;;22.90;59.00;;;;;;5085950;28;20528;-51
2022/06/13 00:49:07;;;;;;;1.43;1.30;;;22.90;59.00;;;;;;5069778;28;20960;-49
2022/06/13 00:51:49;;;;;;;1.70;1.10;;;22.90;58.90;;;;;;5143194;27;1240679;-49
2022/06/13 00:54:29;;;;;;;1.40;1.25;;;22.90;59.00;;;;;;5089678;27;1205141;-49
2022/06/13 00:57:15;;;;;;;2.53;1.37;;;23.00;59.10;;;;;;5085277;28;20524;-50
2022/06/13 01:00:01;;;;;;;1.30;0.97;;;22.90;59.10;;;;;;5095166;27;20552;-49
2022/06/13 01:02:46;;;;;;;1.90;1.37;;;22.90;59.30;;;;;;5081450;27;20524;-48
2022/06/13 01:05:31;;;;;;;1.33;1.03;;;22.90;59.10;;;;;;5128550;27;20524;-50
2022/06/13 01:08:12;;;;;;;2.50;1.30;;;22.90;59.10;;;;;;5123591;27;20528;-48
2022/06/13 01:14:29;;;;;;;1.43;1.30;;;22.90;59.00;;;;;;5069872;27;20543;-49
2022/06/13 01:17:27;;;;;;;2.13;1.43;;;22.90;59.00;;;;;;5079931;27;20529;-48
2022/06/13 01:20:27;;;;;;;1.50;1.30;;;22.90;59.00;;;;;;5042352;28;20890;-51
2022/06/13 01:23:27;;;;;;;1.77;1.67;;;22.90;59.00;;;;;;5123724;27;20530;-49
2022/06/13 01:26:26;;;;;;;1.13;1.03;;;22.90;59.00;;;;;;5076799;27;20591;-48
2022/06/13 01:29:33;;;;;;;1.10;1.00;;;22.90;59.20;;;;;;5086509;27;20539;-48
2022/06/13 01:32:51;;;;;;;1.73;1.17;;;22.90;59.10;;;;;;5128010;27;20522;-49
2022/06/13 01:35:47;;;;;;;1.20;1.10;;;22.90;59.10;;;;;;5074268;27;20529;-50
2022/06/13 01:38:40;;;;;;;1.43;1.30;;;22.90;59.30;;;;;;5068239;27;21021;-49
2022/06/13 01:41:30;;;;;;;1.60;1.00;;;22.90;59.30;;;;;;5074736;27;20588;-49
2022/06/13 01:44:15;;;;;;;1.60;1.03;;;22.90;59.30;;;;;;5067685;28;20893;-50
2022/06/13 01:47:03;;;;;;;0.97;0.87;;;22.90;59.40;;;;;;5071580;27;20969;-50
2022/06/13 01:49:54;;;;;;;1.63;1.17;;;22.90;59.20;;;;;;5052044;27;20597;-47
2022/06/13 01:52:46;;;;;;;1.23;1.10;;;22.80;59.00;;;;;;5078453;28;20534;-49
2022/06/13 01:55:39;;;;;;;3.03;1.50;;;22.80;59.20;;;;;;5079482;28;20537;-49
2022/06/13 01:58:28;;;;;;;1.63;1.20;;;22.90;59.30;;;;;;5076846;27;20587;-48
2022/06/13 02:01:14;;;;;;;1.67;1.23;;;22.80;59.10;;;;;;5095073;27;21119;-50
2022/06/13 02:04:03;;;;;;;2.37;1.40;;;22.80;59.20;;;;;;5070324;27;20962;-50
2022/06/13 02:06:48;;;;;;;1.37;1.27;;;22.80;59.10;;;;;;5084293;27;21126;-50
2022/06/13 02:09:34;;;;;;;1.57;1.30;;;22.80;59.20;;;;;;5055910;28;20594;-50
2022/06/13 02:12:16;;;;;;;1.33;1.23;;;22.80;59.20;;;;;;5078038;28;20865;-50
2022/06/13 02:15:02;;;;;;;0.97;0.83;;;22.80;59.20;;;;;;5089954;27;20880;-50
2022/06/13 02:17:47;;;;;;;1.80;1.27;;;22.80;59.10;;;;;;5122291;27;20942;-51
2022/06/13 02:20:32;;;;;;;1.30;1.20;;;22.80;59.20;;;;;;5063279;28;20577;-50
2022/06/13 02:23:13;;;;;;;1.40;1.15;;;22.80;59.30;;;;;;5122771;27;1201738;-51
2022/06/13 02:25:58;;;;;;;2.20;1.70;;;22.80;59.30;;;;;;5067408;28;21023;-50
2022/06/13 02:28:43;;;;;;;1.30;0.90;;;22.80;59.30;;;;;;5067248;28;20546;-48
2022/06/13 02:31:30;;;;;;;1.50;1.20;;;22.80;59.30;;;;;;5075016;28;20528;-49
2022/06/13 02:34:15;;;;;;;1.33;1.20;;;22.80;59.10;;;;;;5053748;28;20559;-49
2022/06/13 02:36:59;;;;;;;1.47;1.20;;;22.70;59.00;;;;;;5130925;27;20962;-49
2022/06/13 02:39:44;;;;;;;1.80;1.30;;;22.80;59.00;;;;;;5059372;28;20546;-50
2022/06/13 02:42:29;;;;;;;3.07;1.57;;;22.70;59.00;;;;;;5100784;27;20534;-49
2022/06/13 02:45:14;;;;;;;1.90;1.17;;;22.70;59.00;;;;;;5060416;27;20546;-50
2022/06/13 02:48:01;;;;;;;2.10;1.30;;;22.70;59.00;;;;;;5106284;27;20550;-51
2022/06/13 02:50:48;;;;;;;1.80;1.20;;;22.70;59.00;;;;;;5070610;28;20532;-51
2022/06/13 02:53:37;;;;;;;1.20;1.10;;;22.70;59.00;;;;;;5094293;27;20555;-49
2022/06/13 02:56:29;;;;;;;2.27;1.20;;;22.70;59.10;;;;;;5137680;27;20950;-47
2022/06/13 02:59:20;;;;;;;2.40;1.30;;;22.70;59.00;;;;;;5062714;28;20550;-49
2022/06/13 03:02:04;;;;;;;1.10;1.00;;;22.70;59.00;;;;;;5081563;27;20876;-48
2022/06/13 03:04:50;;;;;;;1.27;1.17;;;22.70;58.90;;;;;;5044218;27;20544;-49
2022/06/13 03:07:36;;;;;;;1.93;1.53;;;22.70;58.80;;;;;;5012205;28;20526;-50
2022/06/13 03:10:21;;;;;;;1.27;1.17;;;22.70;59.00;;;;;;5049818;27;20597;-51
2022/06/13 03:13:06;;;;;;;2.07;1.20;;;22.70;58.90;;;;;;5081854;28;20533;-49
2022/06/13 03:15:53;;;;;;;2.30;1.40;;;22.70;59.00;;;;;;5075775;27;20927;-49
2022/06/13 03:18:45;;;;;;;1.50;1.30;;;22.70;59.00;;;;;;5079842;28;21063;-49
2022/06/13 03:21:32;;;;;;;2.93;1.20;;;22.60;58.80;;;;;;5079911;28;20575;-49
2022/06/13 03:24:18;;;;;;;1.63;1.20;;;22.60;58.90;;;;;;5088626;27;20549;-49
2022/06/13 03:27:02;;;;;;;1.80;1.20;;;22.60;58.90;;;;;;5071004;27;20946;-50
2022/06/13 03:29:47;;;;;;;2.30;1.50;;;22.60;59.00;;;;;;5090144;27;1379568;-49
2022/06/13 03:32:33;;;;;;;2.73;1.70;;;22.60;58.90;;;;;;5079807;28;20525;-49
2022/06/13 03:35:16;;;;;;;1.60;1.40;;;22.60;58.90;;;;;;5088129;27;21065;-48
2022/06/13 03:37:57;;;;;;;1.10;1.00;;;22.60;58.90;;;;;;5118811;27;21104;-48
2022/06/13 03:40:42;;;;;;;1.40;1.30;;;22.60;58.90;;;;;;5112897;27;20591;-50
2022/06/13 03:43:26;;;;;;;1.50;1.17;;;22.60;59.00;;;;;;5071351;28;20537;-49
2022/06/13 03:46:12;;;;;;;1.20;1.10;;;22.60;58.90;;;;;;5095903;27;21041;-49
2022/06/13 03:49:00;;;;;;;1.20;1.10;;;22.60;59.00;;;;;;5054563;28;21063;-48
2022/06/13 03:51:44;;;;;;;1.67;1.07;;;22.50;58.90;;;;;;5057819;28;20525;-50
2022/06/13 03:54:30;;;;;;;1.63;1.50;;;22.50;58.90;;;;;;5087214;27;20609;-51
2022/06/13 03:57:16;;;;;;;1.47;1.37;;;22.50;58.90;;;;;;5080131;28;20528;-50
2022/06/13 04:00:10;;;;;;;1.43;1.00;;;22.60;60.30;;;;;;5099218;27;20586;-50
2022/06/13 04:02:53;;;;;;;2.10;1.90;;;22.50;58.90;;;;;;5083911;27;20533;-49
2022/06/13 04:05:37;;;;;;;1.90;1.80;;;22.50;58.90;;;;;;5072088;27;20575;-48
2022/06/13 04:08:18;;;;;;;1.40;1.30;;;22.50;58.90;;;;;;5109531;27;20527;-51
2022/06/13 04:11:21;;;;;;;2.23;1.57;;;22.50;59.00;;;;;;5100630;27;20591;-49
2022/06/13 04:14:09;;;;;;;1.10;1.00;;;22.50;59.00;;;;;;5054007;27;20599;-48
2022/06/13 04:16:57;;;;;;;1.73;1.10;;;22.50;59.10;;;;;;5074387;28;20567;-49
2022/06/13 04:19:51;;;;;;;3.37;1.40;;;22.50;59.20;;;;;;5089653;27;20568;-49
2022/06/13 04:22:41;;;;;;;1.17;1.07;;;22.50;59.00;;;;;;5095618;27;20520;-48
2022/06/13 04:25:27;;;;;;;1.93;1.40;;;22.50;59.00;;;;;;5052854;27;20577;-50
2022/06/13 04:28:15;;;;;;;1.20;1.10;;;22.50;59.10;;;;;;5073186;28;20533;-49
2022/06/13 04:30:56;;;;;;;3.10;1.13;;;22.50;59.10;;;;;;5075321;28;20549;-49
2022/06/13 04:33:40;;;;;;;1.20;1.10;;;22.40;59.10;;;;;;5090115;27;20664;-50
2022/06/13 04:36:23;;;;;;;1.90;1.20;;;22.40;59.00;;;;;;5110508;22;20567;-48
2022/06/13 04:39:09;;;;;;;1.23;1.13;;;22.40;59.10;;;;;;5069511;28;20614;-48
2022/06/13 04:41:50;;;;;;;1.60;1.50;;;22.40;59.20;;;;;;5108404;27;21048;-48
2022/06/13 04:44:34;;;;;;;2.20;1.70;;;22.40;59.10;;;;;;5058233;27;20958;-47
2022/06/13 04:47:17;;;;;;;1.90;1.30;;;22.40;59.00;;;;;;5094199;27;20519;-47
2022/06/13 04:49:59;;;;;;;1.43;1.13;;;22.40;60.30;;;;;;5046111;27;20604;-48
2022/06/13 04:52:38;;;;;;;1.90;1.48;;;22.40;59.10;;;;;;5149332;27;1217656;-48
2022/06/13 04:55:24;;;;;;;1.30;1.20;;;22.40;59.10;;;;;;5057664;27;20604;-48
2022/06/13 04:58:05;;;;;;;1.70;1.40;;;22.40;59.20;;;;;;5073135;27;20572;-47
2022/06/13 05:00:47;;;;;;;1.53;1.43;;;22.40;59.10;;;;;;5114001;27;20568;-48
2022/06/13 05:03:31;;;;;;;1.53;1.30;;;22.40;59.00;;;;;;5068091;28;20593;-47
2022/06/13 05:06:22;;;;;;;3.10;1.77;;;22.40;59.00;;;;;;5118388;27;20566;-48
2022/06/13 05:09:06;;;;;;;1.13;1.03;;;22.40;59.00;;;;;;5066754;27;20542;-49
2022/06/13 05:11:53;;;;;;;1.53;1.43;;;22.40;59.10;;;;;;5110234;27;20576;-48
2022/06/13 05:14:36;;;;;;;1.50;1.33;;;22.30;59.10;;;;;;5039424;28;20539;-46
2022/06/13 05:17:34;;;;;;;1.40;1.30;;;22.30;59.10;;;;;;5083648;28;20519;-47
2022/06/13 05:20:20;;;;;;;1.80;1.70;;;22.30;59.10;;;;;;5049446;27;20554;-47
2022/06/13 05:23:22;;;;;;;1.50;1.40;;;22.40;59.20;;;;;;5130023;27;20592;-48
2022/06/13 05:26:04;;;;;;;2.30;1.33;;;22.30;59.10;;;;;;5124938;27;20534;-47
2022/06/13 05:28:45;;;;;;;2.47;1.40;;;22.30;59.10;;;;;;5044108;28;20943;-48
2022/06/13 05:31:25;;;;;;;1.70;1.20;;;22.30;59.10;;;;;;5072084;28;20591;-48
2022/06/13 05:34:15;;;;;;;1.43;1.33;;;22.30;59.10;;;;;;5056654;27;20589;-47
2022/06/13 05:36:55;;;;;;;1.77;1.67;;;22.30;58.90;;;;;;5129847;27;1192724;-48
2022/06/13 05:39:37;;;;;;;1.57;1.33;;;22.30;58.90;;;;;;5069802;27;20546;-48
2022/06/13 05:42:18;;;;;;;1.63;1.37;;;22.30;59.60;;;;;;5081013;27;20526;-47
2022/06/13 05:44:59;;;;;;;2.37;1.53;;;22.30;59.20;;;;;;5074097;27;20625;-48
2022/06/13 05:47:41;;;;;;;1.30;1.20;;;22.30;59.10;;;;;;5123756;27;20694;-48
2022/06/13 05:50:23;;;;;;;1.60;1.50;;;22.30;59.10;;;;;;5048485;28;20548;-48
2022/06/13 05:53:04;;;;;;;1.00;0.90;;;22.30;59.20;;;;;;5125054;27;20573;-47
2022/06/13 05:55:49;;;;;;;1.77;1.27;;;22.30;59.10;;;;;;5128197;27;20528;-48
2022/06/13 05:58:32;;;;;;;1.47;1.20;;;22.30;59.20;;;;;;5080261;27;20613;-49
2022/06/13 06:01:14;;;;;;;2.97;1.67;;;22.30;60.10;;;;;;5119460;27;20529;-48
2022/06/13 06:03:54;;;;;;;1.63;1.53;;;22.20;59.10;;;;;;5046291;28;20956;-47
2022/06/13 06:06:35;;;;;;;2.23;1.60;;;22.20;59.10;;;;;;5102332;27;20532;-47
2022/06/13 06:09:16;;;;;;;1.73;1.30;;;22.20;59.10;;;;;;5093383;27;21117;-49
2022/06/13 06:11:57;;;;;;;1.83;1.70;;;22.20;58.70;;;;;;5084358;28;20549;-47
2022/06/13 06:14:36;;;;;;;1.67;1.40;;;22.20;59.00;;;;;;5052992;27;20557;-49
2022/06/13 06:17:17;;;;;;;1.60;1.40;;;22.20;59.00;;;;;;5073438;28;20538;-47
2022/06/13 06:19:58;;;;;;;1.83;1.30;;;22.20;59.00;;;;;;5052651;28;20553;-47
2022/06/13 06:22:39;;;;;;;2.20;2.00;;;22.20;59.00;;;;;;5074290;27;20521;-48
2022/06/13 06:25:21;;;;;;;1.80;1.50;;;22.20;58.50;;;;;;5046492;27;20668;-48
2022/06/13 06:28:03;;;;;;;5.10;1.50;;;22.20;58.40;;;;;;5082708;28;20590;-47
2022/06/13 06:30:45;;;;;;;2.30;1.27;;;22.20;58.80;;;;;;5115207;27;20526;-47
2022/06/13 06:33:28;;;;;;;2.90;2.10;;;22.20;59.10;;;;;;5121971;27;20536;-47
2022/06/13 06:36:10;;;;;;;1.87;1.40;;;22.20;58.80;;;;;;5149100;27;20550;-48
2022/06/13 06:38:51;;;;;;;4.27;1.40;;;22.20;59.00;;;;;;5057808;28;20618;-47
2022/06/13 06:41:30;;;;;;;2.03;1.20;;;22.20;59.10;;;;;;5127705;27;20523;-48
2022/06/13 06:44:11;;;;;;;1.83;1.40;;;22.20;58.90;;;;;;5073752;27;20536;-48
2022/06/13 06:46:52;;;;;;;2.53;1.50;;;22.20;58.90;;;;;;5091418;28;20560;-47
2022/06/13 06:49:37;;;;;;;3.63;2.10;;;22.20;58.70;;;;;;5096607;27;20613;-47
2022/06/13 06:52:18;;;;;;;3.00;2.23;;;22.10;58.60;;;;;;5099709;27;20653;-46
2022/06/13 07:00:54;;;;;;;1.60;1.40;;;22.10;58.90;;;;;;5068720;28;21281;-47
2022/06/13 07:03:36;;;;;;;1.30;1.17;;;22.10;59.10;;;;;;5077841;28;20532;-47
2022/06/13 07:06:20;;;;;;;3.23;1.57;;;22.10;59.10;;;;;;5097458;27;20537;-48
2022/06/13 07:09:00;;;;;;;2.63;1.50;;;22.10;59.10;;;;;;5060620;28;20526;-47
2022/06/13 07:11:56;;;;;;;2.40;1.50;;;22.10;59.20;;;;;;5025794;28;20501;-47
2022/06/13 07:14:38;;;;;;;1.73;1.63;;;22.10;59.10;;;;;;5088561;27;20569;-47
2022/06/13 07:17:20;;;;;;;3.60;1.70;;;22.10;59.20;;;;;;5083945;28;20530;-48
2022/06/13 07:20:00;;;;;;;2.90;1.67;;;22.10;59.20;;;;;;5082892;27;20618;-47
2022/06/13 07:22:48;;;;;;;3.97;1.93;;;22.10;59.10;;;;;;5089341;28;20529;-47
2022/06/13 07:25:32;;;;;;;5.53;1.83;;;22.10;59.30;;;;;;5071449;27;21041;-48
2022/06/13 07:28:12;;;;;;;3.83;1.80;;;22.10;59.40;;;;;;5127407;27;20574;-47
2022/06/13 07:30:52;;;;;;;2.40;1.50;;;22.10;59.20;;;;;;5108089;27;20788;-48
2022/06/13 07:33:33;;;;;;;2.47;2.07;;;22.10;59.30;;;;;;5076304;27;20543;-47
2022/06/13 07:36:15;;;;;;;2.70;1.80;;;22.10;59.40;;;;;;5072319;27;20570;-49
2022/06/13 07:38:56;;;;;;;1.53;1.40;;;22.00;59.40;;;;;;5071544;27;20639;-47
2022/06/13 07:41:39;;;;;;;4.30;2.60;;;22.00;59.50;;;;;;5122532;27;20543;-48
2022/06/13 07:44:24;;;;;;;3.80;2.97;;;22.00;59.40;;;;;;5116917;27;20539;-48
2022/06/13 07:47:07;;;;;;;3.50;2.40;;;22.00;59.30;;;;;;5134172;27;20513;-48
2022/06/13 07:49:48;;;;;;;2.50;2.30;;;22.00;59.30;;;;;;5090878;27;21096;-48
2022/06/13 07:52:32;;;;;;;3.43;1.83;;;22.00;59.40;;;;;;5120809;27;20572;-48
2022/06/13 07:55:13;;;;;;;4.27;2.47;;;22.00;59.40;;;;;;5051501;28;20563;-47
2022/06/13 07:57:54;;;;;;;2.53;2.33;;;22.00;59.50;;;;;;5073413;27;20590;-48
2022/06/13 08:00:37;;;;;;;3.33;2.53;;;22.00;59.50;;;;;;5086607;27;20552;-48
2022/06/13 08:03:23;;;;;;;4.10;2.40;;;22.00;59.60;;;;;;5109298;27;20614;-48
2022/06/13 08:06:05;;;;;;;5.50;2.10;;;22.00;59.60;;;;;;5104853;22;20625;-73
2022/06/13 08:08:46;;;;;;;2.40;2.17;;;22.00;59.50;;;;;;5104049;27;20552;-48
2022/06/13 08:11:33;;;;;;;3.77;3.07;;;22.00;59.60;;;;;;5103752;27;20584;-48
2022/06/13 08:14:14;;;;;;;2.93;2.40;;;22.00;59.60;;;;;;5118672;27;21020;-48
2022/06/13 08:16:55;;;;;;;3.00;2.27;;;22.00;59.70;;;;;;5096473;27;20599;-48
2022/06/13 08:19:37;;;;;;;6.10;3.80;;;22.00;59.70;;;;;;5087954;27;20571;-48
2022/06/13 08:22:19;;;;;;;5.60;3.47;;;22.00;59.30;;;;;;5101075;27;20541;-48
2022/06/13 08:24:59;;;;;;;2.83;2.37;;;22.00;59.50;;;;;;5084092;27;20601;-47
2022/06/13 08:27:41;;;;;;;4.67;3.00;;;22.00;59.60;;;;;;5006300;27;20609;-47
2022/06/13 08:30:21;;;;;;;4.45;2.28;;;22.00;59.60;;;;;;5067443;27;1207095;-46
2022/06/13 08:33:02;;;;;;;3.60;2.60;;;22.00;59.60;;;;;;5081979;27;20587;-48
2022/06/13 08:35:44;;;;;;;5.73;3.57;;;22.00;59.40;;;;;;5073629;27;21140;-48
2022/06/13 08:38:25;;;;;;;4.23;3.17;;;22.00;59.10;;;;;;5072697;28;20935;-47
2022/06/13 08:41:18;;;;;;;4.70;2.77;;;22.00;59.10;;;;;;5124271;27;20591;-46
2022/06/13 08:44:19;;;;;;;3.23;2.93;;;22.00;59.20;;;;;;5058496;27;20544;-46
2022/06/13 08:47:07;;;;;;;6.10;2.90;;;22.00;59.10;;;;;;5084369;27;20517;-47
2022/06/13 08:49:58;;;;;;;7.20;3.93;;;22.00;59.10;;;;;;5074811;27;20542;-48
2022/06/13 08:52:45;;;;;;;4.30;2.63;;;22.00;58.60;;;;;;5091150;27;20551;-48
2022/06/13 08:55:34;;;;;;;2.60;2.40;;;22.00;58.90;;;;;;5108557;27;20623;-48
2022/06/13 08:58:23;;;;;;;2.57;2.20;;;22.00;59.00;;;;;;5117607;27;20502;-47
2022/06/13 09:01:11;;;;;;;2.67;2.27;;;22.00;59.10;;;;;;5073709;28;20529;-47
2022/06/13 09:04:00;;;;;;;2.70;2.50;;;22.00;59.00;;;;;;5084282;27;20602;-52
2022/06/13 09:06:46;;;;;;;3.57;2.73;;;22.00;58.80;;;;;;5070433;28;20935;-46
2022/06/13 09:09:32;;;;;;;5.40;2.73;;;22.00;58.60;;;;;;5101851;27;20599;-48
2022/06/13 09:12:41;;;;;;;3.63;2.53;;;22.00;58.60;;;;;;5128448;27;21185;-48
2022/06/13 09:15:26;;;;;;;5.80;2.70;;;22.00;58.30;;;;;;4960676;28;20560;-48
2022/06/13 09:18:15;;;;;;;3.53;2.17;;;21.90;58.30;;;;;;5136758;27;20512;-47
2022/06/13 09:21:01;;;;;;;2.33;2.13;;;21.90;57.90;;;;;;5079017;28;20543;-47
2022/06/13 09:23:49;;;;;;;3.40;2.27;;;21.90;58.60;;;;;;5076807;28;20547;-46
2022/06/13 09:26:37;;;;;;;5.30;2.93;;;21.90;58.60;;;;;;5097368;27;21127;-47
2022/06/13 09:29:24;;;;;;;3.30;2.07;;;21.90;58.60;;;;;;5096191;27;20627;-47
2022/06/13 09:32:11;;;;;;;4.47;2.30;;;22.00;58.80;;;;;;5133543;27;20531;-46
2022/06/13 09:34:56;;;;;;;2.40;1.93;;;22.00;58.60;;;;;;5048256;27;20551;-47
2022/06/13 09:37:42;;;;;;;2.23;2.03;;;21.90;58.70;;;;;;5083066;28;20521;-48
2022/06/13 09:40:32;;;;;;;3.13;2.17;;;21.90;58.70;;;;;;5080014;27;1321344;-47
2022/06/13 09:43:29;;;;;;;5.07;2.40;;;21.90;58.30;;;;;;5126813;27;20533;-47
2022/06/13 09:46:17;;;;;;;3.43;2.20;;;21.90;58.60;;;;;;5119550;27;20511;-47
2022/06/13 09:49:11;;;;;;;3.27;2.10;;;21.90;58.80;;;;;;5069824;28;20534;-48
2022/06/13 09:52:01;;;;;;;3.90;2.40;;;21.90;58.40;;;;;;5069198;27;20651;-47
2022/06/13 09:54:50;;;;;;;2.50;2.17;;;21.90;58.60;;;;;;5046332;27;20554;-46
2022/06/13 09:57:40;;;;;;;2.77;2.40;;;21.90;58.60;;;;;;5122519;27;20518;-48
2022/06/13 10:00:25;;;;;;;2.63;2.43;;;21.90;58.40;;;;;;5049875;27;20975;-48
2022/06/13 10:03:16;;;;;;;3.17;2.67;;;21.80;58.50;;;;;;5118178;27;20527;-48
2022/06/13 10:06:04;;;;;;;2.23;1.70;;;21.90;58.40;;;;;;5003723;27;20524;-47
2022/06/13 10:08:55;;;;;;;2.20;1.73;;;21.90;58.40;;;;;;5071664;27;20600;-47
2022/06/13 10:11:49;;;;;;;2.97;2.60;;;21.80;58.20;;;;;;5110468;27;20940;-48
2022/06/13 10:15:02;;;;;;;4.37;2.80;;;21.80;58.50;;;;;;5095169;27;20765;-47
2022/06/13 10:17:58;;;;;;;3.00;2.40;;;21.80;57.80;;;;;;5079699;27;20589;-46
2022/06/13 10:20:46;;;;;;;2.50;2.30;;;21.80;58.30;;;;;;5066702;27;20558;-47
2022/06/13 10:23:36;;;;;;;2.57;2.20;;;21.80;58.30;;;;;;5072113;27;20595;-47
2022/06/13 10:26:27;;;;;;;3.67;2.10;;;21.80;58.40;;;;;;5107037;27;21057;-47
2022/06/13 10:29:38;;;;;;;3.23;1.90;;;21.80;58.40;;;;;;5069827;27;21120;-48
2022/06/13 10:32:30;;;;;;;2.73;1.97;;;21.90;58.10;;;;;;5079047;28;21043;-48
2022/06/13 10:35:21;;;;;;;2.70;1.97;;;21.80;58.50;;;;;;5041263;27;20552;-47
2022/06/13 10:38:17;;;;;;;2.80;1.97;;;21.80;58.50;;;;;;5119875;27;20569;-46
2022/06/13 10:40:59;;;;;;;3.67;2.10;;;21.80;58.40;;;;;;5087020;22;20644;-47
2022/06/13 10:43:42;;;;;;;2.10;1.90;;;21.90;58.40;;;;;;5065954;28;20543;-49
2022/06/13 10:46:24;;;;;;;3.37;2.30;;;21.90;58.60;;;;;;5123144;27;20928;-50
2022/06/13 10:49:13;;;;;;;2.87;2.17;;;21.80;58.60;;;;;;5107550;27;20678;-49
2022/06/13 10:51:58;;;;;;;3.37;2.30;;;21.90;58.60;;;;;;5063618;28;20527;-48
2022/06/13 10:54:43;;;;;;;6.07;2.63;;;21.80;58.10;;;;;;5054629;27;20543;-49
2022/06/13 10:57:32;;;;;;;3.13;2.23;;;21.80;57.50;;;;;;5127985;27;20521;-51
2022/06/13 11:00:16;;;;;;;3.80;2.40;;;21.80;57.70;;;;;;5077644;27;20751;-49
2022/06/13 11:03:11;;;;;;;3.80;1.80;;;21.90;57.90;;;;;;5111513;27;20547;-49
2022/06/13 11:05:56;;;;;;;2.20;1.80;;;21.80;57.50;;;;;;5112736;27;21032;-51
2022/06/13 11:08:37;;;;;;;2.30;1.77;;;21.80;57.80;;;;;;5104975;27;20591;-50
2022/06/13 11:11:34;;;;;;;2.90;1.77;;;21.80;57.90;;;;;;5080485;27;20549;-50
2022/06/13 11:14:27;;;;;;;2.87;2.33;;;21.80;57.50;;;;;;5099376;27;20570;-50
2022/06/13 11:23:22;;;;;;;4.17;2.17;;;21.90;57.50;;;;;;5070800;27;20572;-49
2022/06/13 11:27:39;;;;;;;2.80;2.50;;;21.90;57.80;;;;;;5135754;27;20570;-48
2022/06/13 11:29:06;;;;;;;5.50;1.80;;;21.80;57.80;;;;;;5100492;27;20935;-48
2022/06/13 11:31:52;;;;;;;2.70;2.50;;;21.90;57.70;;;;;;5078595;28;20517;-49
2022/06/13 11:34:34;;;;;;;2.07;1.80;;;21.90;57.90;;;;;;5062282;27;20545;-48
2022/06/13 11:37:22;;;;;;;3.67;2.40;;;21.90;57.80;;;;;;5129814;27;20510;-50
2022/06/13 11:40:16;;;;;;;2.63;2.03;;;21.80;58.00;;;;;;5082480;27;20538;-52
2022/06/13 11:42:57;;;;;;;2.53;1.83;;;21.80;57.80;;;;;;5104131;27;20517;-50
2022/06/13 11:45:39;;;;;;;2.30;1.70;;;21.90;58.10;;;;;;5066559;27;20591;-49
2022/06/13 11:48:20;;;;;;;3.93;2.40;;;21.80;58.30;;;;;;5074319;28;20527;-50
2022/06/13 11:51:04;;;;;;;3.10;2.10;;;21.80;57.90;;;;;;5116620;27;21037;-50
2022/06/13 11:53:44;;;;;;;2.53;2.30;;;21.80;57.90;;;;;;5092062;27;20605;-49
2022/06/13 11:56:29;;;;;;;3.40;2.70;;;21.90;57.90;;;;;;5084051;27;20531;-50
2022/06/13 11:59:16;;;;;;;2.73;2.53;;;21.90;57.60;;;;;;5075604;27;20560;-50
2022/06/13 12:01:58;;;;;;;3.07;2.10;;;21.90;57.70;;;;;;5083535;27;20527;-49
2022/06/13 12:04:39;;;;;;;2.83;2.17;;;21.80;57.50;;;;;;5062121;28;20545;-51
2022/06/13 12:07:26;;;;;;;2.60;2.23;;;21.80;57.10;;;;;;5067806;27;20591;-49
2022/06/13 12:10:21;;;;;;;3.33;2.10;;;21.80;57.80;;;;;;5053429;27;20681;-50
2022/06/13 12:13:01;;;;;;;3.87;2.07;;;21.90;57.70;;;;;;5124568;27;20514;-51
2022/06/13 12:15:50;;;;;;;2.50;2.30;;;21.90;57.80;;;;;;5122404;27;20546;-48
2022/06/13 12:18:40;;;;;;;3.13;1.90;;;21.90;57.80;;;;;;5092465;27;20581;-49
2022/06/13 12:21:27;;;;;;;3.13;2.50;;;21.90;57.60;;;;;;5120631;27;20538;-49
2022/06/13 12:24:18;;;;;;;4.60;2.80;;;21.90;57.30;;;;;;5100656;27;20567;-49
2022/06/13 12:27:07;;;;;;;2.60;1.87;;;21.90;57.30;;;;;;5087418;28;20952;-48
2022/06/13 12:30:28;;;;;;;2.83;1.97;;;21.90;57.30;;;;;;5059957;27;20596;-50
2022/06/13 12:33:26;;;;;;;3.13;2.50;;;21.90;56.70;;;;;;5076957;27;20935;-48
2022/06/13 12:36:24;;;;;;;1.63;1.47;;;21.90;56.90;;;;;;5082640;27;20533;-48
2022/06/13 12:39:22;;;;;;;2.13;1.80;;;21.90;57.20;;;;;;5087547;27;20554;-48
2022/06/13 12:42:17;;;;;;;3.10;2.00;;;21.90;56.70;;;;;;5075347;27;20528;-48
2022/06/13 12:45:16;;;;;;;1.77;1.67;;;21.90;57.50;;;;;;5095872;27;20543;-50
2022/06/13 12:48:23;;;;;;;3.17;2.10;;;21.90;57.00;;;;;;5079495;27;20525;-49
2022/06/13 12:51:18;;;;;;;4.80;2.57;;;21.90;57.20;;;;;;5075054;27;20521;-48
2022/06/13 12:54:11;;;;;;;2.30;1.70;;;21.90;56.80;;;;;;5106554;27;20598;-49
2022/06/13 12:57:01;;;;;;;1.77;1.33;;;21.90;56.90;;;;;;5067430;27;20627;-49
2022/06/13 12:59:57;;;;;;;2.73;2.00;;;21.90;57.10;;;;;;5089565;27;20898;-49
2022/06/13 13:02:59;;;;;;;2.13;2.03;;;21.90;57.00;;;;;;5077907;27;20579;-49
2022/06/13 13:05:48;;;;;;;2.17;1.73;;;21.90;56.60;;;;;;5053186;27;20599;-48
2022/06/13 13:08:43;;;;;;;3.13;1.53;;;21.90;57.00;;;;;;5072661;28;20638;-47
2022/06/13 13:11:46;;;;;;;1.80;1.60;;;21.90;56.90;;;;;;5079698;27;20528;-48
2022/06/13 13:14:37;;;;;;;2.67;1.70;;;21.90;57.00;;;;;;4987477;28;20581;-49
2022/06/13 13:17:26;;;;;;;1.93;1.80;;;21.90;56.50;;;;;;5190294;27;21094;-47
2022/06/13 13:20:14;;;;;;;2.27;1.90;;;21.90;56.30;;;;;;5052612;27;20534;-49
2022/06/13 13:23:02;;;;;;;2.43;2.23;;;22.00;56.30;;;;;;5107516;27;20510;-49
2022/06/13 13:26:00;;;;;;;3.33;1.60;;;22.00;56.80;;;;;;5080551;28;20930;-49
2022/06/13 13:28:56;;;;;;;1.43;1.33;;;22.00;57.20;;;;;;5119290;27;20357;-49
2022/06/13 13:31:43;;;;;;;2.23;1.90;;;22.00;57.00;;;;;;5074994;28;20531;-49
2022/06/13 13:34:45;;;;;;;2.50;1.87;;;22.00;57.20;;;;;;5093454;27;20570;-48
2022/06/13 13:37:32;;;;;;;2.27;2.07;;;22.00;57.00;;;;;;5144254;27;20596;-48
2022/06/13 13:40:19;;;;;;;1.73;1.60;;;22.00;56.90;;;;;;5110210;27;20628;-51
2022/06/13 13:43:07;;;;;;;2.30;1.80;;;22.00;57.00;;;;;;5080111;28;20525;-47
2022/06/13 13:45:55;;;;;;;1.90;1.60;;;22.00;57.00;;;;;;5128850;27;20470;-49
2022/06/13 13:48:44;;;;;;;2.53;1.43;;;22.00;56.50;;;;;;5083083;27;20990;-47
2022/06/13 13:51:31;;;;;;;1.73;1.47;;;22.00;57.20;;;;;;5119356;27;20542;-49
2022/06/13 13:54:19;;;;;;;2.00;1.50;;;22.00;57.10;;;;;;5069578;27;20572;-49
2022/06/13 13:57:05;;;;;;;1.87;1.77;;;22.00;57.30;;;;;;5074956;28;20556;-51
2022/06/13 13:59:50;;;;;;;1.80;1.63;;;22.00;57.20;;;;;;5093519;27;20605;-51
2022/06/13 14:02:45;;;;;;;1.60;1.50;;;22.00;57.50;;;;;;5099559;27;20561;-49
2022/06/13 14:05:35;;;;;;;1.93;1.60;;;22.00;57.50;;;;;;5072153;27;20569;-48
2022/06/13 14:08:18;;;;;;;2.00;1.53;;;22.00;57.20;;;;;;5067935;28;20591;-50
2022/06/13 14:11:00;;;;;;;1.63;1.40;;;22.00;57.00;;;;;;5078598;28;20525;-48
2022/06/13 14:13:43;;;;;;;2.13;1.80;;;22.00;56.40;;;;;;5068117;28;20958;-50
2022/06/13 14:16:41;;;;;;;1.63;1.53;;;22.00;56.90;;;;;;5087034;27;20520;-49
2022/06/13 14:19:26;;;;;;;1.80;1.60;;;22.00;57.00;;;;;;5084762;27;20587;-50
2022/06/13 14:22:22;;;;;;;1.97;1.77;;;22.00;56.80;;;;;;5105533;27;20602;-49
2022/06/13 14:25:09;;;;;;;1.63;1.47;;;22.00;56.60;;;;;;5056467;28;20626;-50
2022/06/13 14:27:57;;;;;;;1.30;1.20;;;22.00;56.40;;;;;;5125662;27;20322;-47
2022/06/13 14:37:13;;;;;;;1.70;1.60;;;22.00;56.80;;;;;;5127041;27;20645;-49
2022/06/13 14:39:58;;;;;;;1.50;1.40;;;22.10;57.00;;;;;;5079538;27;20537;-49
2022/06/13 14:42:49;;;;;;;2.47;1.33;;;22.10;56.60;;;;;;5082894;27;20581;-49
2022/06/13 14:45:39;;;;;;;1.63;1.50;;;22.10;56.90;;;;;;5055116;27;20607;-50
2022/06/13 14:48:29;;;;;;;2.37;1.40;;;22.10;57.20;;;;;;5066237;27;20585;-49